sensor_id;sensor_type;location;lat;lon;timestamp;P1;durP1;ratioP1;P2;durP2;ratioP2
9914;SDS011;4996;48.746;9.174;2022-11-25T00:01:17;11.27;;;4.43;;
9914;SDS011;4996;48.746;9.174;2022-11-25T00:03:47;7.25;;;4.00;;
9914;SDS011;4996;48.746;9.174;2022-11-25T00:06:14;9.02;;;4.10;;
9914;SDS011;4996;48.746;9.174;2022-11-25T00:08:45;6.72;;;3.78;;
9914;SDS011;4996;48.746;9.174;2022-11-25T00:11:12;9.57;;;4.18;;
9914;SDS011;4996;48.746;9.174;2022-11-25T00:13:38;9.80;;;5.00;;
9914;SDS011;4996;48.746;9.174;2022-11-25T00:16:06;8.32;;;3.38;;
9914;SDS011;4996;48.746;9.174;2022-11-25T00:18:34;8.68;;;3.95;;
9914;SDS011;4996;48.746;9.174;2022-11-25T00:21:03;7.00;;;3.60;;
9914;SDS011;4996;48.746;9.174;2022-11-25T00:23:31;7.25;;;3.90;;
9914;SDS011;4996;48.746;9.174;2022-11-25T00:25:56;10.67;;;3.83;;
9914;SDS011;4996;48.746;9.174;2022-11-25T00:28:22;7.50;;;3.90;;
9914;SDS011;4996;48.746;9.174;2022-11-25T00:30:47;9.47;;;4.30;;
9914;SDS011;4996;48.746;9.174;2022-11-25T00:33:13;8.00;;;3.83;;
9914;SDS011;4996;48.746;9.174;2022-11-25T00:35:38;4.67;;;2.83;;
9914;SDS011;4996;48.746;9.174;2022-11-25T00:38:04;11.53;;;3.37;;
9914;SDS011;4996;48.746;9.174;2022-11-25T00:40:29;11.37;;;4.13;;
9914;SDS011;4996;48.746;9.174;2022-11-25T00:42:55;5.27;;;3.50;;
9914;SDS011;4996;48.746;9.174;2022-11-25T00:45:39;10.02;;;4.93;;
9914;SDS011;4996;48.746;9.174;2022-11-25T00:48:04;8.90;;;4.60;;
9914;SDS011;4996;48.746;9.174;2022-11-25T00:50:30;8.70;;;4.10;;
9914;SDS011;4996;48.746;9.174;2022-11-25T00:52:55;8.43;;;3.47;;
9914;SDS011;4996;48.746;9.174;2022-11-25T00:55:21;6.40;;;3.20;;
9914;SDS011;4996;48.746;9.174;2022-11-25T00:57:46;4.60;;;2.73;;
9914;SDS011;4996;48.746;9.174;2022-11-25T01:00:12;8.00;;;3.50;;
9914;SDS011;4996;48.746;9.174;2022-11-25T01:02:38;8.20;;;4.03;;
9914;SDS011;4996;48.746;9.174;2022-11-25T01:05:03;6.57;;;3.77;;
9914;SDS011;4996;48.746;9.174;2022-11-25T01:07:29;7.17;;;3.83;;
9914;SDS011;4996;48.746;9.174;2022-11-25T01:09:55;12.37;;;3.77;;
9914;SDS011;4996;48.746;9.174;2022-11-25T01:12:21;9.03;;;4.63;;
9914;SDS011;4996;48.746;9.174;2022-11-25T01:14:46;7.60;;;3.40;;
9914;SDS011;4996;48.746;9.174;2022-11-25T01:17:12;5.83;;;3.43;;
9914;SDS011;4996;48.746;9.174;2022-11-25T01:19:37;6.63;;;3.50;;
9914;SDS011;4996;48.746;9.174;2022-11-25T01:22:04;5.22;;;2.65;;
9914;SDS011;4996;48.746;9.174;2022-11-25T01:24:31;5.65;;;3.35;;
9914;SDS011;4996;48.746;9.174;2022-11-25T01:26:57;7.20;;;2.63;;
9914;SDS011;4996;48.746;9.174;2022-11-25T01:29:22;6.67;;;3.60;;
9914;SDS011;4996;48.746;9.174;2022-11-25T01:31:48;5.53;;;3.03;;
9914;SDS011;4996;48.746;9.174;2022-11-25T01:36:41;5.20;;;3.25;;
9914;SDS011;4996;48.746;9.174;2022-11-25T01:39:07;4.97;;;3.33;;
9914;SDS011;4996;48.746;9.174;2022-11-25T01:41:37;7.07;;;3.40;;
9914;SDS011;4996;48.746;9.174;2022-11-25T01:49:22;7.40;;;3.03;;
9914;SDS011;4996;48.746;9.174;2022-11-25T01:54:18;4.78;;;2.97;;
9914;SDS011;4996;48.746;9.174;2022-11-25T01:56:48;5.68;;;2.92;;
9914;SDS011;4996;48.746;9.174;2022-11-25T01:59:21;10.23;;;2.90;;
9914;SDS011;4996;48.746;9.174;2022-11-25T02:01:47;4.05;;;3.20;;
9914;SDS011;4996;48.746;9.174;2022-11-25T02:04:13;7.07;;;3.40;;
9914;SDS011;4996;48.746;9.174;2022-11-25T02:06:44;6.67;;;3.00;;
9914;SDS011;4996;48.746;9.174;2022-11-25T02:09:14;9.80;;;3.03;;
9914;SDS011;4996;48.746;9.174;2022-11-25T02:11:42;4.00;;;2.50;;
9914;SDS011;4996;48.746;9.174;2022-11-25T02:14:08;6.27;;;2.70;;
9914;SDS011;4996;48.746;9.174;2022-11-25T02:16:36;6.47;;;3.30;;
9914;SDS011;4996;48.746;9.174;2022-11-25T02:19:01;4.47;;;2.40;;
9914;SDS011;4996;48.746;9.174;2022-11-25T02:21:51;9.07;;;3.20;;
9914;SDS011;4996;48.746;9.174;2022-11-25T02:26:51;7.20;;;3.93;;
9914;SDS011;4996;48.746;9.174;2022-11-25T02:29:17;5.20;;;3.40;;
9914;SDS011;4996;48.746;9.174;2022-11-25T02:31:43;4.27;;;2.80;;
9914;SDS011;4996;48.746;9.174;2022-11-25T02:34:08;6.20;;;2.90;;
9914;SDS011;4996;48.746;9.174;2022-11-25T02:36:34;6.90;;;3.03;;
9914;SDS011;4996;48.746;9.174;2022-11-25T02:39:00;4.90;;;2.87;;
9914;SDS011;4996;48.746;9.174;2022-11-25T02:41:36;6.00;;;2.88;;
9914;SDS011;4996;48.746;9.174;2022-11-25T02:44:09;6.60;;;3.20;;
9914;SDS011;4996;48.746;9.174;2022-11-25T02:46:35;5.93;;;2.57;;
9914;SDS011;4996;48.746;9.174;2022-11-25T02:49:01;5.97;;;2.63;;
9914;SDS011;4996;48.746;9.174;2022-11-25T02:51:29;8.73;;;3.67;;
9914;SDS011;4996;48.746;9.174;2022-11-25T02:53:56;5.30;;;2.73;;
9914;SDS011;4996;48.746;9.174;2022-11-25T02:56:23;8.83;;;3.27;;
9914;SDS011;4996;48.746;9.174;2022-11-25T02:58:51;3.83;;;2.45;;
9914;SDS011;4996;48.746;9.174;2022-11-25T03:01:17;7.87;;;3.33;;
9914;SDS011;4996;48.746;9.174;2022-11-25T03:03:42;7.00;;;3.10;;
9914;SDS011;4996;48.746;9.174;2022-11-25T03:06:08;4.30;;;3.03;;
9914;SDS011;4996;48.746;9.174;2022-11-25T03:08:34;6.50;;;3.13;;
9914;SDS011;4996;48.746;9.174;2022-11-25T03:11:00;8.57;;;3.33;;
9914;SDS011;4996;48.746;9.174;2022-11-25T03:13:26;4.50;;;3.13;;
9914;SDS011;4996;48.746;9.174;2022-11-25T03:15:52;4.17;;;3.03;;
9914;SDS011;4996;48.746;9.174;2022-11-25T03:18:18;6.70;;;3.03;;
9914;SDS011;4996;48.746;9.174;2022-11-25T03:20:43;13.20;;;3.23;;
9914;SDS011;4996;48.746;9.174;2022-11-25T03:23:09;2.53;;;2.17;;
9914;SDS011;4996;48.746;9.174;2022-11-25T03:25:34;3.97;;;2.70;;
9914;SDS011;4996;48.746;9.174;2022-11-25T03:28:00;7.20;;;3.53;;
9914;SDS011;4996;48.746;9.174;2022-11-25T03:30:27;4.67;;;3.07;;
9914;SDS011;4996;48.746;9.174;2022-11-25T03:32:53;7.70;;;3.50;;
9914;SDS011;4996;48.746;9.174;2022-11-25T03:35:19;4.80;;;2.70;;
9914;SDS011;4996;48.746;9.174;2022-11-25T03:37:44;7.27;;;3.10;;
9914;SDS011;4996;48.746;9.174;2022-11-25T03:40:11;6.10;;;3.70;;
9914;SDS011;4996;48.746;9.174;2022-11-25T03:42:38;6.65;;;3.45;;
9914;SDS011;4996;48.746;9.174;2022-11-25T03:45:04;4.40;;;3.17;;
9914;SDS011;4996;48.746;9.174;2022-11-25T03:47:30;5.95;;;2.80;;
9914;SDS011;4996;48.746;9.174;2022-11-25T03:49:56;8.53;;;3.00;;
9914;SDS011;4996;48.746;9.174;2022-11-25T03:52:21;7.07;;;3.73;;
9914;SDS011;4996;48.746;9.174;2022-11-25T03:54:47;5.63;;;3.00;;
9914;SDS011;4996;48.746;9.174;2022-11-25T03:57:13;3.63;;;2.87;;
9914;SDS011;4996;48.746;9.174;2022-11-25T03:59:38;3.43;;;2.70;;
9914;SDS011;4996;48.746;9.174;2022-11-25T04:02:04;7.13;;;2.77;;
9914;SDS011;4996;48.746;9.174;2022-11-25T04:04:29;3.93;;;3.07;;
9914;SDS011;4996;48.746;9.174;2022-11-25T04:06:55;9.13;;;3.60;;
9914;SDS011;4996;48.746;9.174;2022-11-25T04:09:21;6.27;;;3.77;;
9914;SDS011;4996;48.746;9.174;2022-11-25T04:11:46;8.33;;;4.07;;
9914;SDS011;4996;48.746;9.174;2022-11-25T04:14:30;8.07;;;3.55;;
9914;SDS011;4996;48.746;9.174;2022-11-25T04:16:56;6.60;;;3.20;;
9914;SDS011;4996;48.746;9.174;2022-11-25T04:19:22;5.40;;;3.47;;
9914;SDS011;4996;48.746;9.174;2022-11-25T04:21:47;10.37;;;4.30;;
9914;SDS011;4996;48.746;9.174;2022-11-25T04:24:13;5.67;;;4.23;;
9914;SDS011;4996;48.746;9.174;2022-11-25T04:26:38;10.57;;;4.60;;
9914;SDS011;4996;48.746;9.174;2022-11-25T04:29:04;6.00;;;4.53;;
9914;SDS011;4996;48.746;9.174;2022-11-25T04:31:30;11.47;;;4.77;;
9914;SDS011;4996;48.746;9.174;2022-11-25T04:33:55;9.73;;;4.60;;
9914;SDS011;4996;48.746;9.174;2022-11-25T04:36:21;6.57;;;4.23;;
9914;SDS011;4996;48.746;9.174;2022-11-25T04:38:46;9.97;;;4.63;;
9914;SDS011;4996;48.746;9.174;2022-11-25T04:41:12;11.17;;;6.23;;
9914;SDS011;4996;48.746;9.174;2022-11-25T04:43:37;9.40;;;5.00;;
9914;SDS011;4996;48.746;9.174;2022-11-25T04:46:03;9.47;;;5.50;;
9914;SDS011;4996;48.746;9.174;2022-11-25T04:48:29;7.07;;;5.18;;
9914;SDS011;4996;48.746;9.174;2022-11-25T04:50:55;6.17;;;4.63;;
9914;SDS011;4996;48.746;9.174;2022-11-25T04:53:20;6.70;;;4.70;;
9914;SDS011;4996;48.746;9.174;2022-11-25T04:55:46;6.87;;;4.80;;
9914;SDS011;4996;48.746;9.174;2022-11-25T04:58:12;8.53;;;4.87;;
9914;SDS011;4996;48.746;9.174;2022-11-25T05:00:38;6.75;;;5.28;;
9914;SDS011;4996;48.746;9.174;2022-11-25T05:03:03;15.50;;;5.63;;
9914;SDS011;4996;48.746;9.174;2022-11-25T05:05:29;6.07;;;4.80;;
9914;SDS011;4996;48.746;9.174;2022-11-25T05:07:55;6.90;;;4.60;;
9914;SDS011;4996;48.746;9.174;2022-11-25T05:10:20;5.17;;;4.10;;
9914;SDS011;4996;48.746;9.174;2022-11-25T05:12:46;9.47;;;5.23;;
9914;SDS011;4996;48.746;9.174;2022-11-25T05:15:12;16.13;;;6.30;;
9914;SDS011;4996;48.746;9.174;2022-11-25T05:17:38;10.43;;;5.33;;
9914;SDS011;4996;48.746;9.174;2022-11-25T05:20:04;7.53;;;5.20;;
9914;SDS011;4996;48.746;9.174;2022-11-25T05:22:31;14.02;;;5.47;;
9914;SDS011;4996;48.746;9.174;2022-11-25T05:24:57;6.70;;;4.50;;
9914;SDS011;4996;48.746;9.174;2022-11-25T05:27:23;6.33;;;4.50;;
9914;SDS011;4996;48.746;9.174;2022-11-25T05:29:49;15.23;;;8.68;;
9914;SDS011;4996;48.746;9.174;2022-11-25T05:32:15;24.93;;;6.93;;
9914;SDS011;4996;48.746;9.174;2022-11-25T05:34:41;5.37;;;4.70;;
9914;SDS011;4996;48.746;9.174;2022-11-25T05:37:07;7.93;;;5.10;;
9914;SDS011;4996;48.746;9.174;2022-11-25T05:39:33;10.32;;;4.85;;
9914;SDS011;4996;48.746;9.174;2022-11-25T05:41:59;6.00;;;4.43;;
9914;SDS011;4996;48.746;9.174;2022-11-25T05:44:24;10.27;;;5.87;;
9914;SDS011;4996;48.746;9.174;2022-11-25T05:46:50;4.43;;;3.77;;
9914;SDS011;4996;48.746;9.174;2022-11-25T05:49:16;13.53;;;5.30;;
9914;SDS011;4996;48.746;9.174;2022-11-25T05:51:42;12.65;;;5.55;;
9914;SDS011;4996;48.746;9.174;2022-11-25T05:54:08;7.07;;;5.05;;
9914;SDS011;4996;48.746;9.174;2022-11-25T05:56:34;5.87;;;4.50;;
9914;SDS011;4996;48.746;9.174;2022-11-25T05:59:00;5.90;;;4.47;;
9914;SDS011;4996;48.746;9.174;2022-11-25T06:01:26;8.13;;;4.63;;
9914;SDS011;4996;48.746;9.174;2022-11-25T06:03:52;6.60;;;5.17;;
9914;SDS011;4996;48.746;9.174;2022-11-25T06:06:18;12.00;;;5.50;;
9914;SDS011;4996;48.746;9.174;2022-11-25T06:08:44;9.90;;;5.18;;
9914;SDS011;4996;48.746;9.174;2022-11-25T06:11:11;5.78;;;4.60;;
9914;SDS011;4996;48.746;9.174;2022-11-25T06:13:39;11.02;;;5.78;;
9914;SDS011;4996;48.746;9.174;2022-11-25T06:16:10;8.18;;;5.82;;
9914;SDS011;4996;48.746;9.174;2022-11-25T06:18:37;14.50;;;6.35;;
9914;SDS011;4996;48.746;9.174;2022-11-25T06:21:03;11.88;;;6.20;;
9914;SDS011;4996;48.746;9.174;2022-11-25T06:23:30;5.13;;;4.50;;
9914;SDS011;4996;48.746;9.174;2022-11-25T06:28:32;11.55;;;6.55;;
9914;SDS011;4996;48.746;9.174;2022-11-25T06:31:09;9.10;;;4.78;;
9914;SDS011;4996;48.746;9.174;2022-11-25T06:33:36;11.80;;;5.85;;
9914;SDS011;4996;48.746;9.174;2022-11-25T06:36:05;12.67;;;6.27;;
9914;SDS011;4996;48.746;9.174;2022-11-25T06:38:33;13.10;;;5.75;;
9914;SDS011;4996;48.746;9.174;2022-11-25T06:41:00;8.30;;;5.63;;
9914;SDS011;4996;48.746;9.174;2022-11-25T06:43:26;9.02;;;5.47;;
9914;SDS011;4996;48.746;9.174;2022-11-25T06:45:52;10.93;;;6.03;;
9914;SDS011;4996;48.746;9.174;2022-11-25T06:48:17;8.23;;;6.20;;
9914;SDS011;4996;48.746;9.174;2022-11-25T06:50:43;20.07;;;6.30;;
9914;SDS011;4996;48.746;9.174;2022-11-25T06:53:08;9.40;;;5.50;;
9914;SDS011;4996;48.746;9.174;2022-11-25T06:55:34;8.20;;;5.17;;
9914;SDS011;4996;48.746;9.174;2022-11-25T06:57:59;7.30;;;5.10;;
9914;SDS011;4996;48.746;9.174;2022-11-25T07:00:25;13.07;;;7.30;;
9914;SDS011;4996;48.746;9.174;2022-11-25T07:02:50;11.00;;;6.80;;
9914;SDS011;4996;48.746;9.174;2022-11-25T07:05:16;14.73;;;6.70;;
9914;SDS011;4996;48.746;9.174;2022-11-25T07:07:41;8.30;;;5.40;;
9914;SDS011;4996;48.746;9.174;2022-11-25T07:10:07;9.77;;;5.80;;
9914;SDS011;4996;48.746;9.174;2022-11-25T07:12:33;10.50;;;6.53;;
9914;SDS011;4996;48.746;9.174;2022-11-25T07:14:58;11.07;;;7.13;;
9914;SDS011;4996;48.746;9.174;2022-11-25T07:17:24;15.60;;;6.40;;
9914;SDS011;4996;48.746;9.174;2022-11-25T07:19:49;10.43;;;6.10;;
9914;SDS011;4996;48.746;9.174;2022-11-25T07:22:15;8.80;;;6.10;;
9914;SDS011;4996;48.746;9.174;2022-11-25T07:24:40;9.10;;;5.90;;
9914;SDS011;4996;48.746;9.174;2022-11-25T07:27:06;11.87;;;6.30;;
9914;SDS011;4996;48.746;9.174;2022-11-25T07:29:32;12.60;;;7.20;;
9914;SDS011;4996;48.746;9.174;2022-11-25T07:31:59;7.63;;;6.00;;
9914;SDS011;4996;48.746;9.174;2022-11-25T07:34:25;9.27;;;6.30;;
9914;SDS011;4996;48.746;9.174;2022-11-25T07:36:50;7.37;;;6.00;;
9914;SDS011;4996;48.746;9.174;2022-11-25T07:39:17;14.40;;;6.07;;
9914;SDS011;4996;48.746;9.174;2022-11-25T07:41:44;8.93;;;5.63;;
9914;SDS011;4996;48.746;9.174;2022-11-25T07:44:14;11.02;;;5.47;;
9914;SDS011;4996;48.746;9.174;2022-11-25T07:46:41;10.30;;;5.30;;
9914;SDS011;4996;48.746;9.174;2022-11-25T07:49:12;8.20;;;5.07;;
9914;SDS011;4996;48.746;9.174;2022-11-25T07:51:46;7.70;;;4.67;;
9914;SDS011;4996;48.746;9.174;2022-11-25T07:54:14;11.00;;;5.47;;
9914;SDS011;4996;48.746;9.174;2022-11-25T07:56:40;7.00;;;4.77;;
9914;SDS011;4996;48.746;9.174;2022-11-25T07:59:08;9.60;;;5.67;;
9914;SDS011;4996;48.746;9.174;2022-11-25T08:01:36;7.83;;;5.50;;
9914;SDS011;4996;48.746;9.174;2022-11-25T08:04:02;16.33;;;5.33;;
9914;SDS011;4996;48.746;9.174;2022-11-25T08:06:28;12.40;;;5.57;;
9914;SDS011;4996;48.746;9.174;2022-11-25T08:08:55;5.70;;;4.37;;
9914;SDS011;4996;48.746;9.174;2022-11-25T08:11:23;10.70;;;4.93;;
9914;SDS011;4996;48.746;9.174;2022-11-25T08:13:50;10.50;;;4.60;;
9914;SDS011;4996;48.746;9.174;2022-11-25T08:16:17;11.73;;;4.30;;
9914;SDS011;4996;48.746;9.174;2022-11-25T08:18:45;9.47;;;4.40;;
9914;SDS011;4996;48.746;9.174;2022-11-25T08:21:11;6.90;;;3.80;;
9914;SDS011;4996;48.746;9.174;2022-11-25T08:23:38;5.80;;;3.87;;
9914;SDS011;4996;48.746;9.174;2022-11-25T08:26:07;7.17;;;3.83;;
9914;SDS011;4996;48.746;9.174;2022-11-25T08:28:38;5.77;;;3.47;;
9914;SDS011;4996;48.746;9.174;2022-11-25T08:31:09;6.27;;;3.20;;
9914;SDS011;4996;48.746;9.174;2022-11-25T08:33:36;5.17;;;3.00;;
9914;SDS011;4996;48.746;9.174;2022-11-25T08:36:01;5.00;;;3.10;;
9914;SDS011;4996;48.746;9.174;2022-11-25T08:38:28;6.53;;;4.07;;
9914;SDS011;4996;48.746;9.174;2022-11-25T08:40:54;7.10;;;3.20;;
9914;SDS011;4996;48.746;9.174;2022-11-25T08:43:20;11.27;;;4.07;;
9914;SDS011;4996;48.746;9.174;2022-11-25T08:45:49;3.80;;;2.90;;
9914;SDS011;4996;48.746;9.174;2022-11-25T08:48:16;6.33;;;3.27;;
9914;SDS011;4996;48.746;9.174;2022-11-25T08:50:48;5.60;;;3.47;;
9914;SDS011;4996;48.746;9.174;2022-11-25T08:53:16;5.90;;;3.10;;
9914;SDS011;4996;48.746;9.174;2022-11-25T08:55:41;3.30;;;2.30;;
9914;SDS011;4996;48.746;9.174;2022-11-25T08:58:07;6.23;;;2.90;;
9914;SDS011;4996;48.746;9.174;2022-11-25T09:00:41;3.90;;;2.90;;
9914;SDS011;4996;48.746;9.174;2022-11-25T09:03:08;5.50;;;3.17;;
9914;SDS011;4996;48.746;9.174;2022-11-25T09:05:34;3.10;;;2.43;;
9914;SDS011;4996;48.746;9.174;2022-11-25T09:08:03;5.67;;;3.20;;
9914;SDS011;4996;48.746;9.174;2022-11-25T09:10:29;6.00;;;2.97;;
9914;SDS011;4996;48.746;9.174;2022-11-25T09:12:56;3.43;;;2.73;;
9914;SDS011;4996;48.746;9.174;2022-11-25T09:15:22;6.30;;;2.67;;
9914;SDS011;4996;48.746;9.174;2022-11-25T09:17:47;4.57;;;3.07;;
9914;SDS011;4996;48.746;9.174;2022-11-25T09:20:13;5.03;;;3.00;;
9914;SDS011;4996;48.746;9.174;2022-11-25T09:22:40;5.97;;;3.00;;
9914;SDS011;4996;48.746;9.174;2022-11-25T09:25:05;6.57;;;3.13;;
9914;SDS011;4996;48.746;9.174;2022-11-25T09:27:31;10.10;;;3.23;;
9914;SDS011;4996;48.746;9.174;2022-11-25T09:29:57;3.03;;;2.53;;
9914;SDS011;4996;48.746;9.174;2022-11-25T09:32:22;4.63;;;2.80;;
9914;SDS011;4996;48.746;9.174;2022-11-25T09:34:48;5.87;;;3.17;;
9914;SDS011;4996;48.746;9.174;2022-11-25T09:37:13;7.43;;;3.83;;
9914;SDS011;4996;48.746;9.174;2022-11-25T09:39:39;9.43;;;2.93;;
9914;SDS011;4996;48.746;9.174;2022-11-25T09:42:18;5.20;;;2.70;;
9914;SDS011;4996;48.746;9.174;2022-11-25T09:45:13;6.27;;;3.07;;
9914;SDS011;4996;48.746;9.174;2022-11-25T09:51:29;4.57;;;2.90;;
9914;SDS011;4996;48.746;9.174;2022-11-25T09:57:08;9.30;;;2.97;;
9914;SDS011;4996;48.746;9.174;2022-11-25T09:59:50;6.23;;;2.93;;
9914;SDS011;4996;48.746;9.174;2022-11-25T10:02:30;6.63;;;3.50;;
9914;SDS011;4996;48.746;9.174;2022-11-25T10:05:08;7.20;;;3.50;;
9914;SDS011;4996;48.746;9.174;2022-11-25T10:07:54;9.30;;;3.90;;
9914;SDS011;4996;48.746;9.174;2022-11-25T10:10:26;5.80;;;2.97;;
9914;SDS011;4996;48.746;9.174;2022-11-25T10:13:12;7.97;;;2.80;;
9914;SDS011;4996;48.746;9.174;2022-11-25T10:16:05;3.70;;;2.37;;
9914;SDS011;4996;48.746;9.174;2022-11-25T10:18:39;7.87;;;3.40;;
9914;SDS011;4996;48.746;9.174;2022-11-25T10:21:09;7.93;;;3.30;;
9914;SDS011;4996;48.746;9.174;2022-11-25T10:23:35;5.50;;;3.00;;
9914;SDS011;4996;48.746;9.174;2022-11-25T10:26:11;6.20;;;3.30;;
9914;SDS011;4996;48.746;9.174;2022-11-25T10:31:39;7.43;;;4.50;;
9914;SDS011;4996;48.746;9.174;2022-11-25T10:34:49;4.07;;;2.90;;
9914;SDS011;4996;48.746;9.174;2022-11-25T10:37:05;5.23;;;3.03;;
9914;SDS011;4996;48.746;9.174;2022-11-25T10:39:42;6.90;;;3.90;;
9914;SDS011;4996;48.746;9.174;2022-11-25T10:42:14;8.20;;;3.30;;
9914;SDS011;4996;48.746;9.174;2022-11-25T10:44:44;11.60;;;3.20;;
9914;SDS011;4996;48.746;9.174;2022-11-25T10:47:30;6.40;;;2.60;;
9914;SDS011;4996;48.746;9.174;2022-11-25T10:52:53;6.60;;;3.10;;
9914;SDS011;4996;48.746;9.174;2022-11-25T10:55:25;4.10;;;1.77;;
9914;SDS011;4996;48.746;9.174;2022-11-25T10:57:53;3.67;;;1.43;;
9914;SDS011;4996;48.746;9.174;2022-11-25T11:03:10;3.10;;;1.73;;
9914;SDS011;4996;48.746;9.174;2022-11-25T11:05:48;2.67;;;1.77;;
9914;SDS011;4996;48.746;9.174;2022-11-25T11:08:16;6.43;;;2.20;;
9914;SDS011;4996;48.746;9.174;2022-11-25T11:10:42;4.30;;;1.63;;
9914;SDS011;4996;48.746;9.174;2022-11-25T11:13:24;4.77;;;1.90;;
9914;SDS011;4996;48.746;9.174;2022-11-25T11:15:56;2.77;;;1.70;;
9914;SDS011;4996;48.746;9.174;2022-11-25T11:18:27;8.63;;;1.40;;
9914;SDS011;4996;48.746;9.174;2022-11-25T11:20:57;7.17;;;2.60;;
9914;SDS011;4996;48.746;9.174;2022-11-25T11:23:24;7.70;;;2.17;;
9914;SDS011;4996;48.746;9.174;2022-11-25T11:26:00;5.83;;;1.70;;
9914;SDS011;4996;48.746;9.174;2022-11-25T11:33:30;9.17;;;2.00;;
9914;SDS011;4996;48.746;9.174;2022-11-25T11:41:56;2.77;;;1.43;;
9914;SDS011;4996;48.746;9.174;2022-11-25T11:44:32;2.13;;;1.20;;
9914;SDS011;4996;48.746;9.174;2022-11-25T11:47:24;6.83;;;2.17;;
9914;SDS011;4996;48.746;9.174;2022-11-25T11:50:14;3.23;;;2.00;;
9914;SDS011;4996;48.746;9.174;2022-11-25T11:52:52;2.80;;;1.90;;
9914;SDS011;4996;48.746;9.174;2022-11-25T12:00:42;5.70;;;2.50;;
9914;SDS011;4996;48.746;9.174;2022-11-25T12:03:19;2.43;;;1.70;;
9914;SDS011;4996;48.746;9.174;2022-11-25T12:05:48;5.63;;;2.00;;
9914;SDS011;4996;48.746;9.174;2022-11-25T12:08:30;7.60;;;3.07;;
9914;SDS011;4996;48.746;9.174;2022-11-25T12:11:09;10.90;;;3.40;;
9914;SDS011;4996;48.746;9.174;2022-11-25T12:14:23;9.20;;;3.40;;
9914;SDS011;4996;48.746;9.174;2022-11-25T12:16:36;4.40;;;2.27;;
9914;SDS011;4996;48.746;9.174;2022-11-25T12:19:13;4.33;;;1.83;;
9914;SDS011;4996;48.746;9.174;2022-11-25T12:22:00;3.30;;;2.03;;
9914;SDS011;4996;48.746;9.174;2022-11-25T12:24:43;9.10;;;2.37;;
9914;SDS011;4996;48.746;9.174;2022-11-25T12:27:31;4.40;;;1.90;;
9914;SDS011;4996;48.746;9.174;2022-11-25T12:30:09;4.93;;;2.33;;
9914;SDS011;4996;48.746;9.174;2022-11-25T12:38:13;5.00;;;2.43;;
9914;SDS011;4996;48.746;9.174;2022-11-25T12:41:24;10.27;;;2.67;;
9914;SDS011;4996;48.746;9.174;2022-11-25T12:48:47;6.80;;;2.43;;
9914;SDS011;4996;48.746;9.174;2022-11-25T12:59:27;4.50;;;2.10;;
9914;SDS011;4996;48.746;9.174;2022-11-25T13:05:00;3.37;;;2.10;;
9914;SDS011;4996;48.746;9.174;2022-11-25T13:15:42;6.80;;;3.00;;
9914;SDS011;4996;48.746;9.174;2022-11-25T13:18:13;4.30;;;2.70;;
9914;SDS011;4996;48.746;9.174;2022-11-25T13:25:43;4.60;;;2.53;;
9914;SDS011;4996;48.746;9.174;2022-11-25T13:31:15;13.53;;;3.17;;
9914;SDS011;4996;48.746;9.174;2022-11-25T13:34:19;8.60;;;3.23;;
9914;SDS011;4996;48.746;9.174;2022-11-25T13:37:00;5.00;;;2.30;;
9914;SDS011;4996;48.746;9.174;2022-11-25T13:39:46;12.43;;;2.53;;
9914;SDS011;4996;48.746;9.174;2022-11-25T13:42:15;8.20;;;2.90;;
9914;SDS011;4996;48.746;9.174;2022-11-25T13:44:55;8.20;;;2.67;;
9914;SDS011;4996;48.746;9.174;2022-11-25T13:49:59;6.07;;;2.47;;
9914;SDS011;4996;48.746;9.174;2022-11-25T13:55:51;4.63;;;2.27;;
9914;SDS011;4996;48.746;9.174;2022-11-25T13:58:01;3.60;;;2.07;;
9914;SDS011;4996;48.746;9.174;2022-11-25T14:00:49;8.37;;;2.53;;
9914;SDS011;4996;48.746;9.174;2022-11-25T14:05:58;6.13;;;2.67;;
9914;SDS011;4996;48.746;9.174;2022-11-25T14:24:51;5.50;;;1.77;;
9914;SDS011;4996;48.746;9.174;2022-11-25T14:27:21;7.23;;;1.97;;
9914;SDS011;4996;48.746;9.174;2022-11-25T14:29:57;5.17;;;1.43;;
9914;SDS011;4996;48.746;9.174;2022-11-25T14:32:31;15.07;;;3.23;;
9914;SDS011;4996;48.746;9.174;2022-11-25T14:37:40;5.83;;;2.00;;
9914;SDS011;4996;48.746;9.174;2022-11-25T14:40:15;9.90;;;2.07;;
9914;SDS011;4996;48.746;9.174;2022-11-25T14:42:45;7.60;;;2.03;;
9914;SDS011;4996;48.746;9.174;2022-11-25T14:47:48;7.00;;;2.20;;
9914;SDS011;4996;48.746;9.174;2022-11-25T14:50:14;6.67;;;1.80;;
9914;SDS011;4996;48.746;9.174;2022-11-25T14:52:40;4.93;;;1.37;;
9914;SDS011;4996;48.746;9.174;2022-11-25T14:55:08;5.03;;;1.43;;
9914;SDS011;4996;48.746;9.174;2022-11-25T14:57:35;2.47;;;1.40;;
9914;SDS011;4996;48.746;9.174;2022-11-25T15:02:32;13.77;;;1.83;;
9914;SDS011;4996;48.746;9.174;2022-11-25T15:05:00;6.53;;;1.50;;
9914;SDS011;4996;48.746;9.174;2022-11-25T15:07:34;3.67;;;1.97;;
9914;SDS011;4996;48.746;9.174;2022-11-25T15:10:04;10.67;;;2.40;;
9914;SDS011;4996;48.746;9.174;2022-11-25T15:12:31;13.00;;;2.23;;
9914;SDS011;4996;48.746;9.174;2022-11-25T15:14:57;4.50;;;1.20;;
9914;SDS011;4996;48.746;9.174;2022-11-25T15:17:25;10.27;;;1.53;;
9914;SDS011;4996;48.746;9.174;2022-11-25T15:19:54;6.10;;;1.50;;
9914;SDS011;4996;48.746;9.174;2022-11-25T15:22:23;14.67;;;1.80;;
9914;SDS011;4996;48.746;9.174;2022-11-25T15:24:49;4.80;;;1.97;;
9914;SDS011;4996;48.746;9.174;2022-11-25T15:27:18;4.40;;;1.53;;
9914;SDS011;4996;48.746;9.174;2022-11-25T15:29:49;7.60;;;1.97;;
9914;SDS011;4996;48.746;9.174;2022-11-25T15:32:30;8.13;;;1.87;;
9914;SDS011;4996;48.746;9.174;2022-11-25T15:34:58;6.57;;;2.20;;
9914;SDS011;4996;48.746;9.174;2022-11-25T15:37:25;7.40;;;1.80;;
9914;SDS011;4996;48.746;9.174;2022-11-25T15:42:57;4.10;;;1.13;;
9914;SDS011;4996;48.746;9.174;2022-11-25T15:45:24;4.60;;;2.33;;
9914;SDS011;4996;48.746;9.174;2022-11-25T15:47:55;7.23;;;1.60;;
9914;SDS011;4996;48.746;9.174;2022-11-25T15:50:24;11.10;;;1.87;;
9914;SDS011;4996;48.746;9.174;2022-11-25T15:52:55;6.70;;;1.90;;
9914;SDS011;4996;48.746;9.174;2022-11-25T15:55:32;7.80;;;2.27;;
9914;SDS011;4996;48.746;9.174;2022-11-25T15:58:11;4.83;;;1.87;;
9914;SDS011;4996;48.746;9.174;2022-11-25T16:01:18;4.53;;;1.90;;
9914;SDS011;4996;48.746;9.174;2022-11-25T16:03:41;9.23;;;1.83;;
9914;SDS011;4996;48.746;9.174;2022-11-25T16:06:17;9.17;;;1.60;;
9914;SDS011;4996;48.746;9.174;2022-11-25T16:08:51;14.10;;;2.17;;
9914;SDS011;4996;48.746;9.174;2022-11-25T16:11:18;10.23;;;2.20;;
9914;SDS011;4996;48.746;9.174;2022-11-25T16:13:48;10.63;;;2.43;;
9914;SDS011;4996;48.746;9.174;2022-11-25T16:21:21;10.70;;;2.43;;
9914;SDS011;4996;48.746;9.174;2022-11-25T16:23:53;7.07;;;2.90;;
9914;SDS011;4996;48.746;9.174;2022-11-25T16:26:24;7.53;;;1.80;;
9914;SDS011;4996;48.746;9.174;2022-11-25T16:28:54;8.83;;;2.70;;
9914;SDS011;4996;48.746;9.174;2022-11-25T16:31:22;7.37;;;3.40;;
9914;SDS011;4996;48.746;9.174;2022-11-25T16:33:48;4.63;;;2.00;;
9914;SDS011;4996;48.746;9.174;2022-11-25T16:36:19;7.53;;;2.20;;
9914;SDS011;4996;48.746;9.174;2022-11-25T16:38:46;4.77;;;2.60;;
9914;SDS011;4996;48.746;9.174;2022-11-25T16:41:19;12.40;;;4.03;;
9914;SDS011;4996;48.746;9.174;2022-11-25T16:43:48;8.90;;;2.83;;
9914;SDS011;4996;48.746;9.174;2022-11-25T16:46:15;8.77;;;2.90;;
9914;SDS011;4996;48.746;9.174;2022-11-25T16:48:41;8.50;;;4.17;;
9914;SDS011;4996;48.746;9.174;2022-11-25T16:51:12;9.97;;;3.50;;
9914;SDS011;4996;48.746;9.174;2022-11-25T16:53:39;7.67;;;3.33;;
9914;SDS011;4996;48.746;9.174;2022-11-25T16:56:07;4.87;;;2.90;;
9914;SDS011;4996;48.746;9.174;2022-11-25T16:58:54;4.70;;;2.33;;
9914;SDS011;4996;48.746;9.174;2022-11-25T17:01:22;12.83;;;3.57;;
9914;SDS011;4996;48.746;9.174;2022-11-25T17:03:50;13.50;;;3.87;;
9914;SDS011;4996;48.746;9.174;2022-11-25T17:06:17;7.37;;;3.60;;
9914;SDS011;4996;48.746;9.174;2022-11-25T17:08:45;9.53;;;3.20;;
9914;SDS011;4996;48.746;9.174;2022-11-25T17:11:15;12.00;;;3.03;;
9914;SDS011;4996;48.746;9.174;2022-11-25T17:13:45;6.80;;;3.13;;
9914;SDS011;4996;48.746;9.174;2022-11-25T17:16:15;7.10;;;2.77;;
9914;SDS011;4996;48.746;9.174;2022-11-25T17:18:46;6.57;;;2.70;;
9914;SDS011;4996;48.746;9.174;2022-11-25T17:21:14;7.87;;;3.80;;
9914;SDS011;4996;48.746;9.174;2022-11-25T17:23:41;9.40;;;2.80;;
9914;SDS011;4996;48.746;9.174;2022-11-25T17:26:18;5.30;;;2.50;;
9914;SDS011;4996;48.746;9.174;2022-11-25T17:28:54;16.13;;;4.00;;
9914;SDS011;4996;48.746;9.174;2022-11-25T17:31:23;8.53;;;3.47;;